createdAt,value
2018-12-05T00:01:20.960Z,7.22
2018-12-05T00:04:25.766Z,7.25
2018-12-05T00:07:30.379Z,7.28
2018-12-05T00:10:34.933Z,7.02
2018-12-05T00:13:39.437Z,6.99
2018-12-05T00:16:44.011Z,7.01
2018-12-05T00:19:48.532Z,7.04
2018-12-05T00:22:53.044Z,7.02
2018-12-05T00:25:57.676Z,7.03
2018-12-05T00:29:02.201Z,7.04
2018-12-05T00:32:06.756Z,7.04
2018-12-05T00:35:11.282Z,6.98
2018-12-05T00:38:22.206Z,6.79
2018-12-05T00:41:26.816Z,6.80
2018-12-05T00:44:31.397Z,7.05
2018-12-05T00:47:35.980Z,6.95
2018-12-05T00:50:40.510Z,6.98
2018-12-05T00:53:45.053Z,6.74
2018-12-05T00:56:49.627Z,6.58
2018-12-05T00:59:54.140Z,6.84
2018-12-05T01:02:58.697Z,6.80
2018-12-05T01:06:03.381Z,7.10
2018-12-05T01:09:13.078Z,7.09
2018-12-05T01:12:17.789Z,7.08
2018-12-05T01:15:22.801Z,7.13
2018-12-05T01:18:27.483Z,6.97
2018-12-05T01:21:32.272Z,6.93
2018-12-05T01:24:37.076Z,7.11
2018-12-05T01:27:41.740Z,6.94
2018-12-05T01:30:46.399Z,7.02
2018-12-05T01:33:52.066Z,7.09
2018-12-05T01:36:56.636Z,7.03
2018-12-05T01:40:01.141Z,6.97
2018-12-05T01:43:05.783Z,6.99
2018-12-05T01:46:10.288Z,6.81
2018-12-05T01:49:14.880Z,6.92
2018-12-05T01:52:19.469Z,7.00
2018-12-05T01:55:24.009Z,7.15
2018-12-05T01:58:28.594Z,7.06
2018-12-05T02:01:33.140Z,7.10
2018-12-05T02:04:37.650Z,7.02
2018-12-05T02:07:42.185Z,7.15
2018-12-05T02:10:46.733Z,7.12
2018-12-05T02:13:51.250Z,7.09
2018-12-05T02:16:55.753Z,7.09
2018-12-05T02:20:00.268Z,7.08
2018-12-05T02:23:04.805Z,7.27
2018-12-05T02:26:09.427Z,7.28
2018-12-05T02:29:13.930Z,7.28
2018-12-05T02:32:19.676Z,7.21
2018-12-05T02:35:24.189Z,7.16
2018-12-05T02:38:28.802Z,7.11
2018-12-05T02:41:33.289Z,7.14
2018-12-05T02:44:37.846Z,6.84
2018-12-05T02:47:42.425Z,7.05
2018-12-05T02:50:47.016Z,6.98
2018-12-05T02:53:51.594Z,6.90
2018-12-05T02:56:56.194Z,7.04
2018-12-05T03:00:00.713Z,7.17
2018-12-05T03:03:07.344Z,7.11
2018-12-05T03:06:11.913Z,7.31
2018-12-05T03:09:16.507Z,7.16
2018-12-05T03:12:21.031Z,7.28
2018-12-05T03:15:25.589Z,7.14
2018-12-05T03:18:30.147Z,7.13
2018-12-05T03:21:34.706Z,7.13
2018-12-05T03:24:39.269Z,7.17
2018-12-05T03:27:43.880Z,7.17
2018-12-05T03:30:48.404Z,7.24
2018-12-05T03:33:52.946Z,7.28
2018-12-05T03:36:57.551Z,7.32
2018-12-05T03:40:02.072Z,7.24
2018-12-05T03:43:06.644Z,7.19
2018-12-05T03:46:11.192Z,7.21
2018-12-05T03:49:15.946Z,6.96
2018-12-05T03:52:20.504Z,7.05
2018-12-05T03:55:25.070Z,6.93
2018-12-05T03:58:29.701Z,6.84
2018-12-05T04:01:34.261Z,6.84
2018-12-05T04:04:38.803Z,6.89
2018-12-05T04:07:43.353Z,6.95
2018-12-05T04:10:47.856Z,6.93
2018-12-05T04:13:52.379Z,7.02
2018-12-05T04:16:56.966Z,7.00
2018-12-05T04:20:01.579Z,6.88
2018-12-05T04:23:06.202Z,6.94
2018-12-05T04:26:10.715Z,6.81
2018-12-05T04:29:15.320Z,6.85
2018-12-05T04:32:20.880Z,6.78
2018-12-05T04:35:25.436Z,6.67
2018-12-05T04:38:30.051Z,6.49
2018-12-05T04:41:34.590Z,6.57
2018-12-05T04:44:39.104Z,6.70
2018-12-05T04:47:43.657Z,6.48
2018-12-05T04:50:48.171Z,6.66
2018-12-05T04:53:52.721Z,6.42
2018-12-05T04:56:57.313Z,6.58
2018-12-05T05:00:01.839Z,6.66
2018-12-05T05:03:06.485Z,6.65
2018-12-05T05:06:11.056Z,6.21
2018-12-05T05:09:15.607Z,6.45
2018-12-05T05:12:20.207Z,6.46
2018-12-05T05:15:24.726Z,6.49
2018-12-05T05:18:29.267Z,6.42
2018-12-05T05:21:33.859Z,6.65
2018-12-05T05:24:38.401Z,6.70
2018-12-05T05:27:45.924Z,6.57
2018-12-05T05:30:49.577Z,6.95
2018-12-05T05:33:54.140Z,6.96
2018-12-05T05:36:58.657Z,7.01
2018-12-05T05:40:03.223Z,6.88
2018-12-05T05:43:07.770Z,6.98
2018-12-05T05:46:12.354Z,7.07
2018-12-05T05:49:16.888Z,7.10
2018-12-05T05:52:21.399Z,6.69
2018-12-05T05:55:25.949Z,6.64
2018-12-05T05:58:30.495Z,6.47
2018-12-05T06:01:34.982Z,6.67
2018-12-05T06:04:39.626Z,6.76
2018-12-05T06:07:44.225Z,6.94
2018-12-05T06:10:48.737Z,7.05
2018-12-05T06:13:53.308Z,7.30
2018-12-05T06:16:57.811Z,7.10
2018-12-05T06:20:02.414Z,7.15
2018-12-05T06:23:06.999Z,7.16
2018-12-05T06:26:11.631Z,7.27
2018-12-05T06:29:16.136Z,7.31
2018-12-05T06:32:20.661Z,7.57
2018-12-05T06:35:25.317Z,7.76
2018-12-05T06:38:29.844Z,7.87
2018-12-05T06:41:34.342Z,7.97
2018-12-05T06:44:38.853Z,8.04
2018-12-05T06:47:43.398Z,8.18
2018-12-05T06:50:48.034Z,8.25
2018-12-05T06:53:52.570Z,8.34
2018-12-05T06:56:57.133Z,8.31
2018-12-05T07:00:01.689Z,8.46
2018-12-05T07:03:06.459Z,8.38
2018-12-05T07:06:10.966Z,8.39
2018-12-05T07:09:15.542Z,8.71
2018-12-05T07:12:20.090Z,8.81
2018-12-05T07:15:24.630Z,8.88
2018-12-05T07:18:29.185Z,8.96
2018-12-05T07:21:33.675Z,9.08
2018-12-05T07:24:38.241Z,9.17
2018-12-05T07:27:42.754Z,9.25
2018-12-05T07:30:47.296Z,9.22
2018-12-05T07:33:52.378Z,9.34
2018-12-05T07:36:56.958Z,9.50
2018-12-05T07:40:01.505Z,9.41
2018-12-05T07:43:06.152Z,9.63
2018-12-05T07:46:10.673Z,9.66
2018-12-05T07:49:15.219Z,9.72
2018-12-05T07:52:19.750Z,9.52
2018-12-05T07:55:24.269Z,9.76
2018-12-05T07:58:28.810Z,9.68
2018-12-05T08:01:33.375Z,9.65
2018-12-05T08:04:37.909Z,9.78
2018-12-05T08:07:42.553Z,9.64
2018-12-05T08:10:47.145Z,9.69
2018-12-05T08:13:51.660Z,9.77
2018-12-05T08:16:56.271Z,9.95
2018-12-05T08:20:00.789Z,10.08
2018-12-05T08:23:05.374Z,10.16
2018-12-05T08:26:09.972Z,10.27
2018-12-05T08:29:14.496Z,10.36
2018-12-05T08:32:20.077Z,10.52
2018-12-05T08:35:24.614Z,10.53
2018-12-05T08:38:30.324Z,10.43
2018-12-05T08:41:34.854Z,10.64
2018-12-05T08:44:39.459Z,10.85
2018-12-05T08:47:44.212Z,10.90
2018-12-05T08:50:49.377Z,10.96
2018-12-05T08:53:54.000Z,11.07
2018-12-05T08:56:58.549Z,11.26
2018-12-05T09:00:03.089Z,11.21
2018-12-05T09:03:09.694Z,11.27
2018-12-05T09:06:14.213Z,11.36
2018-12-05T09:09:18.918Z,11.48
2018-12-05T09:12:23.507Z,11.56
2018-12-05T09:15:28.106Z,11.38
2018-12-05T09:18:33.789Z,11.52
2018-12-05T09:21:38.306Z,11.42
2018-12-05T09:24:42.961Z,11.40
2018-12-05T09:27:47.483Z,11.32
2018-12-05T09:30:52.022Z,11.19
2018-12-05T09:33:57.657Z,11.25
2018-12-05T09:37:02.165Z,11.21
2018-12-05T09:40:07.467Z,11.17
2018-12-05T09:43:13.398Z,11.20
2018-12-05T09:46:17.961Z,11.22
2018-12-05T09:49:22.677Z,11.09
2018-12-05T09:52:27.245Z,11.01
2018-12-05T09:55:31.900Z,11.00
2018-12-05T09:58:36.442Z,11.02
2018-12-05T10:01:41.385Z,10.88
2018-12-05T10:04:45.993Z,10.86
2018-12-05T10:07:50.674Z,10.94
2018-12-05T10:10:55.178Z,10.95
2018-12-05T10:13:59.738Z,10.74
2018-12-05T10:17:04.330Z,10.80
2018-12-05T10:20:09.034Z,10.64
2018-12-05T10:23:13.705Z,10.80
2018-12-05T10:26:18.321Z,10.69
2018-12-05T10:29:22.978Z,10.56
2018-12-05T10:32:27.540Z,10.67
2018-12-05T10:35:32.129Z,10.68
2018-12-05T10:38:36.685Z,10.68
2018-12-05T10:41:41.391Z,10.56
2018-12-05T10:44:46.073Z,10.54
2018-12-05T10:47:50.621Z,10.56
2018-12-05T10:50:55.391Z,10.61
2018-12-05T10:53:59.958Z,10.62
2018-12-05T10:57:04.592Z,10.74
2018-12-05T11:00:13.817Z,10.76
2018-12-05T11:03:23.968Z,10.65
2018-12-05T11:06:33.720Z,10.85
2018-12-05T11:09:43.230Z,10.79
2018-12-05T11:12:52.966Z,10.93
2018-12-05T11:16:05.527Z,11.02
2018-12-05T11:19:15.175Z,10.92
2018-12-05T11:22:24.699Z,11.22
2018-12-05T11:25:29.791Z,11.18
2018-12-05T11:28:34.444Z,10.95
2018-12-05T11:31:38.952Z,11.21
2018-12-05T11:34:43.490Z,11.10
2018-12-05T11:37:48.003Z,10.97
2018-12-05T11:40:52.558Z,10.98
2018-12-05T11:43:57.125Z,11.15
2018-12-05T11:47:01.640Z,11.18
2018-12-05T11:50:06.455Z,11.31
2018-12-05T11:53:10.985Z,11.06
2018-12-05T11:56:15.709Z,11.09
2018-12-05T11:59:20.420Z,11.39
2018-12-05T12:02:24.955Z,11.35
2018-12-05T12:05:31.574Z,11.30
2018-12-05T12:08:36.243Z,11.38
2018-12-05T12:11:40.992Z,11.30
2018-12-05T12:14:45.488Z,11.31
2018-12-05T12:17:50.567Z,11.27
2018-12-05T12:20:55.699Z,11.23
2018-12-05T12:24:00.245Z,11.39
2018-12-05T12:27:04.928Z,11.28
2018-12-05T12:30:15.898Z,11.13
2018-12-05T12:33:17.902Z,11.23
2018-12-05T12:36:22.442Z,11.18
2018-12-05T12:39:26.990Z,11.19
2018-12-05T12:42:31.566Z,11.28
2018-12-05T12:45:36.098Z,11.15
2018-12-05T12:48:40.709Z,11.23
2018-12-05T12:51:45.230Z,11.13
2018-12-05T12:54:54.241Z,10.95
2018-12-05T12:57:58.765Z,10.94
2018-12-05T13:01:03.325Z,10.93
2018-12-05T13:04:07.890Z,10.82
2018-12-05T13:07:12.464Z,10.96
2018-12-05T13:10:17.003Z,10.92
2018-12-05T13:13:22.415Z,10.75
2018-12-05T13:16:26.935Z,10.60
2018-12-05T13:19:31.484Z,10.69
2018-12-05T13:22:36.006Z,10.62
2018-12-05T13:25:41.669Z,10.70
2018-12-05T13:28:46.575Z,10.54
2018-12-05T13:31:51.176Z,10.58
2018-12-05T13:34:55.674Z,10.41
2018-12-05T13:38:00.888Z,10.29
2018-12-05T13:41:05.467Z,10.36
2018-12-05T13:44:10.254Z,10.36
2018-12-05T13:47:14.786Z,10.29
2018-12-05T13:50:19.447Z,10.37
2018-12-05T13:53:24.742Z,10.38
2018-12-05T13:56:29.354Z,10.41
2018-12-05T13:59:33.872Z,10.23
2018-12-05T14:02:38.381Z,10.24
2018-12-05T14:08:47.526Z,10.17
2018-12-05T14:11:52.030Z,10.16
2018-12-05T14:14:57.279Z,9.91
2018-12-05T14:18:03.285Z,9.98
2018-12-05T14:21:08.273Z,10.11
2018-12-05T14:24:12.808Z,9.92
2018-12-05T14:27:17.344Z,9.98
2018-12-05T14:30:22.063Z,9.83
2018-12-05T14:33:26.598Z,9.80
2018-12-05T14:36:31.175Z,9.84
2018-12-05T14:39:35.756Z,9.81
2018-12-05T14:42:40.314Z,9.69
2018-12-05T14:45:44.797Z,9.76
2018-12-05T14:48:49.321Z,9.46
2018-12-05T14:51:53.860Z,9.53
2018-12-05T14:54:58.494Z,9.56
2018-12-05T14:58:03.021Z,9.59
2018-12-05T15:01:07.657Z,9.37
2018-12-05T15:04:12.166Z,9.61
2018-12-05T15:07:16.757Z,9.37
2018-12-05T15:10:21.258Z,9.31
2018-12-05T15:13:25.844Z,9.50
2018-12-05T15:16:30.417Z,9.53
2018-12-05T15:19:34.996Z,9.19
2018-12-05T15:22:39.523Z,9.37
2018-12-05T15:25:44.049Z,9.14
2018-12-05T15:28:48.615Z,9.18
2018-12-05T15:31:53.200Z,9.30
2018-12-05T15:34:57.859Z,9.29
2018-12-05T15:38:02.378Z,9.13
2018-12-05T15:41:06.919Z,9.09
2018-12-05T15:44:11.547Z,9.10
2018-12-05T15:47:16.090Z,9.23
2018-12-05T15:50:20.588Z,9.13
2018-12-05T15:53:25.141Z,9.01
2018-12-05T15:56:29.701Z,8.88
2018-12-05T15:59:34.244Z,8.94
2018-12-05T16:02:38.890Z,8.94
2018-12-05T16:05:43.439Z,8.86
2018-12-05T16:08:48.114Z,8.93
2018-12-05T16:11:52.676Z,8.99
2018-12-05T16:14:57.207Z,8.90
2018-12-05T16:18:01.737Z,8.85
2018-12-05T16:21:06.298Z,9.08
2018-12-05T16:24:10.835Z,8.88
2018-12-05T16:27:15.357Z,8.85
2018-12-05T16:30:21.520Z,8.94
2018-12-05T16:33:26.208Z,8.88
2018-12-05T16:36:30.831Z,8.89
2018-12-05T16:39:35.366Z,8.87
2018-12-05T16:42:39.898Z,8.64
2018-12-05T16:45:45.126Z,8.90
2018-12-05T16:52:07.462Z,8.81
2018-12-05T16:55:12.098Z,8.89
2018-12-05T16:58:16.781Z,8.86
2018-12-05T17:01:21.281Z,9.09
2018-12-05T17:04:25.788Z,8.74
2018-12-05T17:07:30.411Z,8.67
2018-12-05T17:10:35.008Z,8.77
2018-12-05T17:13:42.678Z,8.88
2018-12-05T17:16:47.206Z,8.80
2018-12-05T17:19:51.804Z,8.67
2018-12-05T17:22:56.340Z,8.81
2018-12-05T17:26:00.875Z,8.74
2018-12-05T17:29:05.624Z,8.65
2018-12-05T17:32:10.252Z,8.59
2018-12-05T17:35:14.827Z,8.79
2018-12-05T17:38:19.413Z,8.91
2018-12-05T17:41:23.983Z,8.63
2018-12-05T17:44:28.598Z,8.85
2018-12-05T17:47:33.179Z,8.80
2018-12-05T17:50:37.748Z,8.82
2018-12-05T17:53:42.351Z,8.66
2018-12-05T17:56:46.895Z,8.88
2018-12-05T17:59:51.507Z,8.95
2018-12-05T18:02:57.524Z,8.83
2018-12-05T18:06:02.047Z,8.68
2018-12-05T18:09:08.714Z,8.84
2018-12-05T18:12:13.312Z,8.64
2018-12-05T18:15:17.885Z,8.80
2018-12-05T18:18:22.463Z,8.61
2018-12-05T18:21:27.072Z,8.74
2018-12-05T18:24:31.626Z,8.64
2018-12-05T18:27:36.493Z,8.48
2018-12-05T18:30:41.396Z,8.60
2018-12-05T18:33:46.054Z,8.65
2018-12-05T18:36:50.563Z,8.80
2018-12-05T18:39:55.213Z,8.77
2018-12-05T18:42:59.738Z,8.84
2018-12-05T18:46:04.353Z,8.83
2018-12-05T18:49:09.173Z,8.73
2018-12-05T18:52:13.746Z,8.72
2018-12-05T18:55:18.321Z,8.63
2018-12-05T18:58:23.017Z,8.54
2018-12-05T19:01:27.605Z,8.50
2018-12-05T19:04:32.237Z,8.71
2018-12-05T19:07:36.812Z,8.48
2018-12-05T19:10:41.401Z,8.51
2018-12-05T19:13:51.196Z,8.67
2018-12-05T19:16:55.724Z,8.66
2018-12-05T19:20:01.313Z,8.40
2018-12-05T19:23:07.132Z,8.65
2018-12-05T19:26:11.673Z,8.17
2018-12-05T19:29:16.257Z,8.48
2018-12-05T19:32:20.882Z,8.51
2018-12-05T19:35:25.442Z,8.75
2018-12-05T19:38:30.097Z,8.69
2018-12-05T19:41:35.206Z,8.74
2018-12-05T19:44:39.714Z,8.59
2018-12-05T19:47:44.247Z,8.52
2018-12-05T19:50:48.877Z,8.67
2018-12-05T19:53:53.366Z,8.54
2018-12-05T19:56:58.187Z,8.54
2018-12-05T20:00:02.698Z,8.52
2018-12-05T20:03:07.396Z,8.51
2018-12-05T20:06:12.280Z,8.47
2018-12-05T20:09:16.866Z,8.50
2018-12-05T20:12:21.640Z,8.55
2018-12-05T20:15:26.198Z,8.71
2018-12-05T20:18:30.786Z,8.44
2018-12-05T20:21:35.306Z,8.53
2018-12-05T20:24:39.901Z,8.20
2018-12-05T20:27:44.423Z,8.24
2018-12-05T20:30:48.981Z,8.27
2018-12-05T20:33:53.525Z,8.21
2018-12-05T20:36:58.070Z,8.14
2018-12-05T20:40:02.624Z,8.39
2018-12-05T20:43:08.175Z,8.30
2018-12-05T20:46:12.746Z,8.17
2018-12-05T20:49:17.277Z,8.19
2018-12-05T20:52:21.784Z,8.28
2018-12-05T20:55:26.454Z,8.12
2018-12-05T20:58:31.029Z,8.52
2018-12-05T21:01:35.595Z,8.37
2018-12-05T21:04:41.398Z,8.30
2018-12-05T21:07:46.039Z,8.36
2018-12-05T21:10:50.629Z,8.29
2018-12-05T21:13:55.133Z,8.02
2018-12-05T21:16:59.754Z,8.18
2018-12-05T21:20:04.533Z,8.19
2018-12-05T21:23:09.175Z,8.24
2018-12-05T21:26:13.703Z,8.19
2018-12-05T21:29:18.261Z,8.14
2018-12-05T21:32:22.955Z,8.21
2018-12-05T21:35:27.576Z,8.24
2018-12-05T21:38:32.065Z,8.08
2018-12-05T21:41:36.688Z,8.04
2018-12-05T21:44:41.232Z,7.98
2018-12-05T21:47:45.878Z,8.10
2018-12-05T21:50:50.380Z,8.08
2018-12-05T21:53:54.919Z,8.16
2018-12-05T21:56:59.422Z,8.02
2018-12-05T22:00:04.489Z,7.92
2018-12-05T22:03:11.667Z,8.20
2018-12-05T22:06:16.214Z,8.07
2018-12-05T22:09:20.833Z,7.79
2018-12-05T22:12:25.334Z,8.05
2018-12-05T22:15:29.890Z,8.09
2018-12-05T22:18:34.407Z,8.02
2018-12-05T22:21:38.944Z,8.02
2018-12-05T22:24:43.443Z,8.16
2018-12-05T22:27:47.974Z,8.17
2018-12-05T22:30:52.558Z,7.67
2018-12-05T22:33:57.095Z,8.00
2018-12-05T22:37:01.656Z,7.88
2018-12-05T22:40:07.766Z,7.84
2018-12-05T22:43:12.267Z,7.87
2018-12-05T22:46:16.922Z,7.96
2018-12-05T22:49:21.516Z,7.93
2018-12-05T22:52:26.206Z,8.06
2018-12-05T22:55:30.780Z,7.92
2018-12-05T22:58:35.336Z,8.00
2018-12-05T23:01:39.843Z,7.87
2018-12-05T23:04:44.440Z,8.17
2018-12-05T23:07:49.342Z,7.93
2018-12-05T23:10:53.843Z,7.89
2018-12-05T23:13:58.345Z,7.97
2018-12-05T23:17:02.870Z,7.79
2018-12-05T23:20:08.507Z,7.96
2018-12-05T23:23:13.079Z,8.01
2018-12-05T23:26:17.720Z,8.00
2018-12-05T23:29:22.251Z,7.86
2018-12-05T23:32:26.752Z,8.05
2018-12-05T23:35:31.388Z,8.00
2018-12-05T23:38:35.891Z,8.13
2018-12-05T23:41:40.429Z,8.17
2018-12-05T23:45:01.135Z,8.08
2018-12-05T23:48:11.165Z,8.07
2018-12-05T23:51:15.692Z,7.90
2018-12-05T23:54:20.181Z,7.89
2018-12-05T23:57:24.750Z,7.71
